createdAt,value
2017-07-26T00:02:38.684Z,23.37
2017-07-26T00:02:48.859Z,23.43
2017-07-26T00:03:49.134Z,23.32
2017-07-26T00:04:49.066Z,23.28
2017-07-26T00:05:49.013Z,23.28
2017-07-26T00:06:48.963Z,23.28
2017-07-26T00:07:49.232Z,23.28
2017-07-26T00:08:48.823Z,23.31
2017-07-26T00:09:48.760Z,23.24
2017-07-26T00:10:48.695Z,23.28
2017-07-26T00:11:49.240Z,23.37
2017-07-26T00:12:48.727Z,23.28
2017-07-26T00:13:48.508Z,23.25
2017-07-26T00:14:48.122Z,23.28
2017-07-26T00:15:48.388Z,23.4
2017-07-26T00:16:48.322Z,23.34
2017-07-26T00:17:48.414Z,23.28
2017-07-26T00:18:48.204Z,23.28
2017-07-26T00:19:48.139Z,23.37
2017-07-26T00:20:48.077Z,23.39
2017-07-26T00:21:48.017Z,23.28
2017-07-26T00:22:47.952Z,23.37
2017-07-26T00:23:47.897Z,23.28
2017-07-26T00:24:47.832Z,23.24
2017-07-26T00:25:47.769Z,23.34
2017-07-26T00:26:47.915Z,23.28
2017-07-26T00:27:47.662Z,23.37
2017-07-26T00:28:47.585Z,23.32
2017-07-26T00:29:47.724Z,23.31
2017-07-26T00:30:47.478Z,23.37
2017-07-26T00:31:47.400Z,23.25
2017-07-26T00:32:47.338Z,23.37
2017-07-26T00:33:47.280Z,23.36
2017-07-26T00:34:47.417Z,23.32
2017-07-26T00:35:47.158Z,23.36
2017-07-26T00:36:47.093Z,23.37
2017-07-26T00:37:47.031Z,23.37
2017-07-26T00:38:47.120Z,23.25
2017-07-26T00:39:46.902Z,23.36
2017-07-26T00:40:46.845Z,23.23
2017-07-26T00:41:46.791Z,23.36
2017-07-26T00:42:46.718Z,23.27
2017-07-26T00:43:46.808Z,23.34
2017-07-26T00:44:46.599Z,23.4
2017-07-26T00:45:46.535Z,23.31
2017-07-26T00:46:46.472Z,23.32
2017-07-26T00:47:46.410Z,23.31
2017-07-26T00:48:46.502Z,23.25
2017-07-26T00:49:46.291Z,23.32
2017-07-26T00:50:46.228Z,23.32
2017-07-26T00:51:46.168Z,23.36
2017-07-26T00:52:46.102Z,23.28
2017-07-26T00:53:46.040Z,23.25
2017-07-26T00:54:45.980Z,23.36
2017-07-26T00:55:45.924Z,23.25
2017-07-26T00:56:45.856Z,23.32
2017-07-26T00:57:45.796Z,23.27
2017-07-26T00:58:45.737Z,23.27
2017-07-26T00:59:45.686Z,23.31
2017-07-26T01:00:45.277Z,23.34
2017-07-26T01:01:45.546Z,23.31
2017-07-26T01:02:45.485Z,23.27
2017-07-26T01:03:45.429Z,23.24
2017-07-26T01:04:45.364Z,23.32
2017-07-26T01:05:45.447Z,23.28
2017-07-26T01:06:44.918Z,23.21
2017-07-26T01:07:45.176Z,23.34
2017-07-26T01:08:45.115Z,23.31
2017-07-26T01:09:45.052Z,23.27
2017-07-26T01:10:45.143Z,23.37
2017-07-26T01:11:44.929Z,23.25
2017-07-26T01:12:44.870Z,23.31
2017-07-26T01:13:44.804Z,23.32
2017-07-26T01:14:44.745Z,23.31
2017-07-26T01:15:44.938Z,23.32
2017-07-26T01:16:44.623Z,23.36
2017-07-26T01:17:44.563Z,23.31
2017-07-26T01:18:44.496Z,23.31
2017-07-26T01:19:44.433Z,23.31
2017-07-26T01:20:44.525Z,23.31
2017-07-26T01:21:44.311Z,23.28
2017-07-26T01:22:44.251Z,23.25
2017-07-26T01:23:44.193Z,23.31
2017-07-26T01:24:44.122Z,23.31
2017-07-26T01:25:44.215Z,23.27
2017-07-26T01:26:44.000Z,23.36
2017-07-26T01:27:43.940Z,23.2
2017-07-26T01:28:43.905Z,23.24
2017-07-26T01:29:43.823Z,23.27
2017-07-26T01:30:44.158Z,23.24
2017-07-26T01:31:43.720Z,23.28
2017-07-26T01:32:43.632Z,23.23
2017-07-26T01:33:43.568Z,23.25
2017-07-26T01:34:43.508Z,23.27
2017-07-26T01:35:43.801Z,23.27
2017-07-26T01:36:43.387Z,23.28
2017-07-26T01:37:43.323Z,23.24
2017-07-26T01:38:43.262Z,23.36
2017-07-26T01:39:43.199Z,23.27
2017-07-26T01:40:43.545Z,23.25
2017-07-26T01:41:43.079Z,23.34
2017-07-26T01:42:43.011Z,23.27
2017-07-26T01:43:42.958Z,23.25
2017-07-26T01:44:42.896Z,23.27
2017-07-26T01:45:42.615Z,23.23
2017-07-26T01:46:42.775Z,23.36
2017-07-26T01:47:42.706Z,23.31
2017-07-26T01:48:42.316Z,23.28
2017-07-26T01:49:42.583Z,23.25
2017-07-26T01:50:42.516Z,23.28
2017-07-26T01:51:42.457Z,23.27
2017-07-26T01:52:42.398Z,23.28
2017-07-26T01:53:42.333Z,23.2
2017-07-26T01:54:42.276Z,23.32
2017-07-26T01:55:42.213Z,23.25
2017-07-26T01:56:42.149Z,23.28
2017-07-26T01:57:42.086Z,23.23
2017-07-26T01:58:42.029Z,23.25
2017-07-26T01:59:41.963Z,23.24
2017-07-26T02:00:41.901Z,23.23
2017-07-26T02:01:41.842Z,23.23
2017-07-26T02:02:41.975Z,23.21
2017-07-26T02:03:41.725Z,23.25
2017-07-26T02:04:41.654Z,23.25
2017-07-26T02:05:41.690Z,23.24
2017-07-26T02:06:41.531Z,23.28
2017-07-26T02:07:41.468Z,23.21
2017-07-26T02:08:41.076Z,23.25
2017-07-26T02:09:41.347Z,23.23
2017-07-26T02:10:41.286Z,23.28
2017-07-26T02:11:42.426Z,23.23
2017-07-26T02:12:41.159Z,23.2
2017-07-26T02:13:41.105Z,23.25
2017-07-26T02:14:41.036Z,23.21
2017-07-26T02:15:40.975Z,23.24
2017-07-26T02:16:40.914Z,23.21
2017-07-26T02:17:40.852Z,23.21
2017-07-26T02:18:40.789Z,23.21
2017-07-26T02:19:40.733Z,23.18
2017-07-26T02:20:40.765Z,23.23
2017-07-26T02:21:40.608Z,23.24
2017-07-26T02:22:40.538Z,23.18
2017-07-26T02:23:40.480Z,23.2
2017-07-26T02:24:40.429Z,23.2
2017-07-26T02:25:40.360Z,23.25
2017-07-26T02:26:40.299Z,23.25
2017-07-26T02:27:40.238Z,23.23
2017-07-26T02:28:40.171Z,23.24
2017-07-26T02:29:40.110Z,23.23
2017-07-26T02:30:40.054Z,23.24
2017-07-26T02:31:39.992Z,23.21
2017-07-26T02:32:39.925Z,23.2
2017-07-26T02:33:39.862Z,23.2
2017-07-26T02:34:39.800Z,23.23
2017-07-26T02:35:39.740Z,23.23
2017-07-26T02:36:39.675Z,23.27
2017-07-26T02:37:39.619Z,23.21
2017-07-26T02:38:39.552Z,23.24
2017-07-26T02:39:39.492Z,23.2
2017-07-26T02:40:39.435Z,23.23
2017-07-26T02:41:39.366Z,23.25
2017-07-26T02:42:39.306Z,23.24
2017-07-26T02:43:39.244Z,23.21
2017-07-26T02:44:39.180Z,23.25
2017-07-26T02:45:39.273Z,23.24
2017-07-26T02:46:39.058Z,23.24
2017-07-26T02:47:38.667Z,23.18
2017-07-26T02:48:38.938Z,23.21
2017-07-26T02:49:38.545Z,23.18
2017-07-26T02:50:38.919Z,23.25
2017-07-26T02:51:38.753Z,23.24
2017-07-26T02:52:38.688Z,23.23
2017-07-26T02:53:38.632Z,23.23
2017-07-26T02:54:38.563Z,23.2
2017-07-26T02:55:38.505Z,23.21
2017-07-26T02:56:38.440Z,23.25
2017-07-26T02:57:38.377Z,23.24
2017-07-26T02:58:37.989Z,23.25
2017-07-26T02:59:38.254Z,23.27
2017-07-26T03:00:38.196Z,23.28
2017-07-26T03:01:38.138Z,23.23
2017-07-26T03:02:38.071Z,23.23
2017-07-26T03:03:38.007Z,23.23
2017-07-26T03:04:37.620Z,23.21
2017-07-26T03:05:37.553Z,23.23
2017-07-26T03:06:37.497Z,23.24
2017-07-26T03:07:37.763Z,23.23
2017-07-26T03:08:37.371Z,23.24
2017-07-26T03:09:37.316Z,23.23
2017-07-26T03:10:37.574Z,23.24
2017-07-26T03:11:37.519Z,23.24
2017-07-26T03:12:37.452Z,23.2
2017-07-26T03:13:37.387Z,23.25
2017-07-26T03:14:37.326Z,23.23
2017-07-26T03:15:37.416Z,23.27
2017-07-26T03:16:37.203Z,23.18
2017-07-26T03:17:37.142Z,23.27
2017-07-26T03:18:37.078Z,23.25
2017-07-26T03:19:37.024Z,23.21
2017-07-26T03:20:36.957Z,23.25
2017-07-26T03:21:36.892Z,23.17
2017-07-26T03:22:36.504Z,23.18
2017-07-26T03:23:36.772Z,23.24
2017-07-26T03:24:36.380Z,23.23
2017-07-26T03:25:36.645Z,23.23
2017-07-26T03:26:36.585Z,23.27
2017-07-26T03:27:36.528Z,23.21
2017-07-26T03:28:36.458Z,23.23
2017-07-26T03:29:36.399Z,23.21
2017-07-26T03:30:36.013Z,23.2
2017-07-26T03:31:36.275Z,23.25
2017-07-26T03:32:36.217Z,23.23
2017-07-26T03:33:35.820Z,23.23
2017-07-26T03:34:36.090Z,23.2
2017-07-26T03:35:36.030Z,23.2
2017-07-26T03:36:35.964Z,23.24
2017-07-26T03:37:35.905Z,23.18
2017-07-26T03:38:35.841Z,23.15
2017-07-26T03:39:35.781Z,23.23
2017-07-26T03:40:35.717Z,23.2
2017-07-26T03:41:35.662Z,23.17
2017-07-26T03:42:35.270Z,23.18
2017-07-26T03:43:35.533Z,23.17
2017-07-26T03:44:35.470Z,23.2
2017-07-26T03:45:35.411Z,23.25
2017-07-26T03:46:35.346Z,23.23
2017-07-26T03:47:35.285Z,23.15
2017-07-26T03:48:35.221Z,23.21
2017-07-26T03:49:35.179Z,23.17
2017-07-26T03:50:35.111Z,23.21
2017-07-26T03:51:35.039Z,23.23
2017-07-26T03:52:34.978Z,23.23
2017-07-26T03:53:34.916Z,23.2
2017-07-26T03:54:34.854Z,23.2
2017-07-26T03:55:34.807Z,23.24
2017-07-26T03:56:34.731Z,23.2
2017-07-26T03:57:34.665Z,23.15
2017-07-26T03:58:34.607Z,23.15
2017-07-26T03:59:34.541Z,23.2
2017-07-26T04:00:34.488Z,23.17
2017-07-26T04:01:34.423Z,23.21
2017-07-26T04:02:34.355Z,23.2
2017-07-26T04:03:34.295Z,23.18
2017-07-26T04:04:34.232Z,23.2
2017-07-26T04:05:34.168Z,23.18
2017-07-26T04:06:34.107Z,23.2
2017-07-26T04:07:34.053Z,23.21
2017-07-26T04:08:33.983Z,23.25
2017-07-26T04:09:33.924Z,23.15
2017-07-26T04:10:33.862Z,23.18
2017-07-26T04:11:33.802Z,23.18
2017-07-26T04:12:33.756Z,23.2
2017-07-26T04:13:33.679Z,23.24
2017-07-26T04:14:33.611Z,23.21
2017-07-26T04:15:33.551Z,23.23
2017-07-26T04:16:33.514Z,23.23
2017-07-26T04:17:33.426Z,23.2
2017-07-26T04:18:33.369Z,23.21
2017-07-26T04:19:33.303Z,23.25
2017-07-26T04:20:33.241Z,23.17
2017-07-26T04:21:33.188Z,23.2
2017-07-26T04:22:32.793Z,23.18
2017-07-26T04:23:33.060Z,23.18
2017-07-26T04:24:33.007Z,23.24
2017-07-26T04:25:32.936Z,23.15
2017-07-26T04:26:32.873Z,23.23
2017-07-26T04:27:32.485Z,23.18
2017-07-26T04:28:32.758Z,23.12
2017-07-26T04:29:32.356Z,23.17
2017-07-26T04:30:32.624Z,23.17
2017-07-26T04:31:32.565Z,23.18
2017-07-26T04:32:32.501Z,23.24
2017-07-26T04:33:32.110Z,23.13
2017-07-26T04:34:32.379Z,23.21
2017-07-26T04:35:32.315Z,23.13
2017-07-26T04:36:32.254Z,23.2
2017-07-26T04:37:32.189Z,23.15
2017-07-26T04:38:32.128Z,23.23
2017-07-26T04:39:32.070Z,23.17
2017-07-26T04:40:31.679Z,23.2
2017-07-26T04:41:31.945Z,23.2
2017-07-26T04:42:31.879Z,23.23
2017-07-26T04:43:31.819Z,23.1
2017-07-26T04:44:31.762Z,23.17
2017-07-26T04:45:31.373Z,23.18
2017-07-26T04:46:31.306Z,23.17
2017-07-26T04:47:31.241Z,23.12
2017-07-26T04:48:31.515Z,23.13
2017-07-26T04:49:31.659Z,23.13
2017-07-26T04:50:31.388Z,23.2
2017-07-26T04:51:31.325Z,23.18
2017-07-26T04:52:30.932Z,23.24
2017-07-26T04:53:31.200Z,23.2
2017-07-26T04:54:31.142Z,23.21
2017-07-26T04:55:31.079Z,23.21
2017-07-26T04:56:31.020Z,23.17
2017-07-26T04:57:30.959Z,23.15
2017-07-26T04:58:30.889Z,23.24
2017-07-26T04:59:30.826Z,23.15
2017-07-26T05:00:30.769Z,23.21
2017-07-26T05:01:30.706Z,23.15
2017-07-26T05:02:30.644Z,23.24
2017-07-26T05:03:30.579Z,23.18
2017-07-26T05:04:30.521Z,23.15
2017-07-26T05:05:30.456Z,23.21
2017-07-26T05:06:30.405Z,23.17
2017-07-26T05:07:30.335Z,23.2
2017-07-26T05:08:30.272Z,23.15
2017-07-26T05:09:29.884Z,23.2
2017-07-26T05:10:30.174Z,23.2
2017-07-26T05:11:30.085Z,23.18
2017-07-26T05:12:29.702Z,23.21
2017-07-26T05:13:30.163Z,23.1
2017-07-26T05:14:29.901Z,23.12
2017-07-26T05:15:29.516Z,23.2
2017-07-26T05:16:29.777Z,23.2
2017-07-26T05:17:29.716Z,23.17
2017-07-26T05:18:29.653Z,23.23
2017-07-26T05:19:29.794Z,23.13
2017-07-26T05:20:29.213Z,23.2
2017-07-26T05:21:29.466Z,23.13
2017-07-26T05:22:29.408Z,23.15
2017-07-26T05:23:29.018Z,23.18
2017-07-26T05:24:29.285Z,23.12
2017-07-26T05:25:29.219Z,23.2
2017-07-26T05:26:29.166Z,23.12
2017-07-26T05:27:28.764Z,23.18
2017-07-26T05:28:29.036Z,23.18
2017-07-26T05:29:28.975Z,23.17
2017-07-26T05:30:28.909Z,23.18
2017-07-26T05:31:28.850Z,23.2
2017-07-26T05:32:28.789Z,23.17
2017-07-26T05:33:28.729Z,23.18
2017-07-26T05:34:28.662Z,23.13
2017-07-26T05:35:28.273Z,23.2
2017-07-26T05:36:28.537Z,23.12
2017-07-26T05:37:28.475Z,23.2
2017-07-26T05:38:28.412Z,23.1
2017-07-26T05:39:28.356Z,23.12
2017-07-26T05:40:28.300Z,23.1
2017-07-26T05:41:27.904Z,23.15
2017-07-26T05:42:28.166Z,23.13
2017-07-26T05:43:28.153Z,23.17
2017-07-26T05:44:27.714Z,23.15
2017-07-26T05:45:27.979Z,23.17
2017-07-26T05:46:27.593Z,23.18
2017-07-26T05:47:27.860Z,23.17
2017-07-26T05:48:27.797Z,23.18
2017-07-26T05:49:27.736Z,23.13
2017-07-26T05:50:27.673Z,23.15
2017-07-26T05:51:27.610Z,23.13
2017-07-26T05:52:27.560Z,23.12
2017-07-26T05:53:27.730Z,23.15
2017-07-26T05:54:27.423Z,23.15
2017-07-26T05:55:27.362Z,23.15
2017-07-26T05:56:27.302Z,23.18
2017-07-26T05:57:26.909Z,23.12
2017-07-26T05:58:26.848Z,23.2
2017-07-26T05:59:26.783Z,23.12
2017-07-26T06:00:26.962Z,23.15
2017-07-26T06:01:27.000Z,23.13
2017-07-26T06:02:26.928Z,23.12
2017-07-26T06:03:27.952Z,23.15
2017-07-26T06:04:26.806Z,23.18
2017-07-26T06:05:26.944Z,23.13
2017-07-26T06:06:27.410Z,23.18
2017-07-26T06:07:26.287Z,23.13
2017-07-26T06:08:26.556Z,23.12
2017-07-26T06:09:26.494Z,23.15
2017-07-26T06:10:26.433Z,23.13
2017-07-26T06:11:26.040Z,23.18
2017-07-26T06:12:26.310Z,23.17
2017-07-26T06:13:26.248Z,23.15
2017-07-26T06:14:26.188Z,23.13
2017-07-26T06:15:26.325Z,23.1
2017-07-26T06:16:26.068Z,23.18
2017-07-26T06:17:25.995Z,23.17
2017-07-26T06:18:25.938Z,23.13
2017-07-26T06:19:25.877Z,23.1
2017-07-26T06:20:25.818Z,23.13
2017-07-26T06:21:25.752Z,23.15
2017-07-26T06:22:25.690Z,23.08
2017-07-26T06:23:25.633Z,23.13
2017-07-26T06:24:25.566Z,23.13
2017-07-26T06:25:25.504Z,23.15
2017-07-26T06:26:25.440Z,23.13
2017-07-26T06:27:25.255Z,23.15
2017-07-26T06:28:24.987Z,23.12
2017-07-26T06:29:25.259Z,23.1
2017-07-26T06:30:25.203Z,23.17
2017-07-26T06:31:25.137Z,23.13
2017-07-26T06:32:25.276Z,23.08
2017-07-26T06:33:25.010Z,23.13
2017-07-26T06:34:24.619Z,23.08
2017-07-26T06:35:24.885Z,23.13
2017-07-26T06:36:24.824Z,23.12
2017-07-26T06:37:24.434Z,23.15
2017-07-26T06:38:24.697Z,23.08
2017-07-26T06:39:24.640Z,23.12
2017-07-26T06:40:24.577Z,23.09
2017-07-26T06:41:24.545Z,23.09
2017-07-26T06:42:24.486Z,23.1
2017-07-26T06:43:24.422Z,23.15
2017-07-26T06:44:24.069Z,23.05
2017-07-26T06:45:24.267Z,23.08
2017-07-26T06:46:23.871Z,23.1
2017-07-26T06:47:23.810Z,23.1
2017-07-26T06:48:23.749Z,23.13
2017-07-26T06:49:24.015Z,23.09
2017-07-26T06:50:23.963Z,23.12
2017-07-26T06:51:23.902Z,23.12
2017-07-26T06:52:23.830Z,23.17
2017-07-26T06:53:23.773Z,23.12
2017-07-26T06:54:23.050Z,23.18
2017-07-26T06:55:23.647Z,23.13
2017-07-26T06:56:23.583Z,23.18
2017-07-26T06:57:23.522Z,23.1
2017-07-26T06:58:23.462Z,23.12
2017-07-26T06:59:23.400Z,23.17
2017-07-26T07:00:23.335Z,23.15
2017-07-26T07:01:22.953Z,23.15
2017-07-26T07:02:22.882Z,23.12
2017-07-26T07:03:23.149Z,23.13
2017-07-26T07:04:22.757Z,23.09
2017-07-26T07:05:22.697Z,23.12
2017-07-26T07:06:22.974Z,23.06
2017-07-26T07:07:22.910Z,23.1
2017-07-26T07:08:22.841Z,23.09
2017-07-26T07:09:22.778Z,23.09
2017-07-26T07:10:22.721Z,23.17
2017-07-26T07:11:22.652Z,23.12
2017-07-26T07:12:22.593Z,23.13
2017-07-26T07:13:22.531Z,23.15
2017-07-26T07:14:22.469Z,23.12
2017-07-26T07:15:22.076Z,23.13
2017-07-26T07:16:22.356Z,23.13
2017-07-26T07:17:22.284Z,23.09
2017-07-26T07:18:21.890Z,23.08
2017-07-26T07:19:21.852Z,23.05
2017-07-26T07:20:22.100Z,23.03
2017-07-26T07:21:22.041Z,23.03
2017-07-26T07:22:21.972Z,23.08
2017-07-26T07:23:21.957Z,23
2017-07-26T07:24:22.058Z,23.03
2017-07-26T07:25:21.812Z,23.02
2017-07-26T07:26:21.730Z,23.03
2017-07-26T07:27:21.665Z,23.05
2017-07-26T07:28:21.600Z,23.08
2017-07-26T07:29:21.547Z,23.03
2017-07-26T07:30:21.511Z,23.06
2017-07-26T07:31:21.413Z,23.09
2017-07-26T07:32:21.357Z,23.08
2017-07-26T07:33:21.290Z,23.03
2017-07-26T07:34:20.572Z,23.03
2017-07-26T07:35:21.178Z,23.02
2017-07-26T07:36:21.148Z,23.03
2017-07-26T07:37:21.043Z,22.99
2017-07-26T07:38:20.982Z,23.02
2017-07-26T07:39:20.589Z,22.93
2017-07-26T07:40:20.531Z,22.96
2017-07-26T07:41:20.794Z,22.94
2017-07-26T07:42:20.749Z,22.93
2017-07-26T07:43:20.672Z,22.96
2017-07-26T07:44:20.614Z,22.94
2017-07-26T07:45:20.546Z,22.9
2017-07-26T07:46:20.154Z,22.98
2017-07-26T07:47:20.424Z,22.98
2017-07-26T07:48:20.363Z,22.94
2017-07-26T07:49:19.966Z,22.9
2017-07-26T07:50:20.234Z,22.99
2017-07-26T07:51:20.178Z,22.91
2017-07-26T07:52:20.113Z,22.94
2017-07-26T07:53:19.726Z,22.93
2017-07-26T07:54:19.988Z,22.91
2017-07-26T07:55:19.925Z,22.96
2017-07-26T07:56:19.860Z,22.93
2017-07-26T07:57:19.797Z,22.93
2017-07-26T07:58:19.738Z,22.91
2017-07-26T07:59:19.552Z,22.99
2017-07-26T08:00:19.297Z,22.99
2017-07-26T08:01:19.551Z,23
2017-07-26T08:02:19.490Z,23.06
2017-07-26T08:03:19.425Z,23.03
2017-07-26T08:04:19.361Z,23.1
2017-07-26T08:05:19.306Z,23.12
2017-07-26T08:06:19.238Z,23.13
2017-07-26T08:07:18.848Z,23.13
2017-07-26T08:08:19.113Z,23.2
2017-07-26T08:09:19.048Z,23.21
2017-07-26T08:10:18.664Z,23.23
2017-07-26T08:11:19.125Z,23.23
2017-07-26T08:12:18.865Z,23.25
2017-07-26T08:13:18.803Z,23.2
2017-07-26T08:14:18.738Z,23.21
2017-07-26T08:15:18.679Z,23.24
2017-07-26T08:16:18.614Z,23.25
2017-07-26T08:17:18.555Z,23.24
2017-07-26T08:18:18.167Z,23.2
2017-07-26T08:19:18.100Z,23.27
2017-07-26T08:20:18.037Z,23.23
2017-07-26T08:21:18.304Z,23.36
2017-07-26T08:22:18.242Z,23.37
2017-07-26T08:23:18.185Z,23.34
2017-07-26T08:24:18.131Z,23.32
2017-07-26T08:25:18.059Z,23.4
2017-07-26T08:26:18.006Z,23.36
2017-07-26T08:27:17.933Z,23.37
2017-07-26T08:28:17.871Z,23.43
2017-07-26T08:29:17.810Z,23.4
2017-07-26T08:30:17.423Z,23.46
2017-07-26T08:31:17.691Z,23.48
2017-07-26T08:32:17.622Z,23.48
2017-07-26T08:33:17.562Z,23.56
2017-07-26T08:34:17.507Z,23.58
2017-07-26T08:35:16.782Z,23.58
2017-07-26T08:36:17.376Z,23.44
2017-07-26T08:37:17.315Z,23.46
2017-07-26T08:38:17.252Z,23.5
2017-07-26T08:39:17.195Z,23.5
2017-07-26T08:40:17.464Z,23.48
2017-07-26T08:41:17.068Z,23.48
2017-07-26T08:42:17.007Z,23.51
2017-07-26T08:43:16.945Z,23.58
2017-07-26T08:44:16.882Z,23.5
2017-07-26T08:45:16.839Z,23.59
2017-07-26T08:46:16.762Z,23.59
2017-07-26T08:47:16.697Z,23.58
2017-07-26T08:48:16.644Z,23.59
2017-07-26T08:49:16.578Z,23.59
2017-07-26T08:50:16.513Z,23.61
2017-07-26T08:51:16.651Z,23.61
2017-07-26T08:52:16.442Z,23.63
2017-07-26T08:53:16.048Z,23.65
2017-07-26T08:54:16.321Z,23.66
2017-07-26T08:55:16.205Z,23.63
2017-07-26T08:56:16.168Z,23.66
2017-07-26T08:57:16.085Z,23.65
2017-07-26T08:58:16.034Z,23.66
2017-07-26T08:59:15.631Z,23.68
2017-07-26T09:00:15.899Z,23.65
2017-07-26T09:01:15.837Z,23.71
2017-07-26T09:02:15.454Z,23.68
2017-07-26T09:03:15.718Z,23.71
2017-07-26T09:04:15.652Z,23.73
2017-07-26T09:05:15.595Z,23.71
2017-07-26T09:06:15.528Z,23.76
2017-07-26T09:07:15.471Z,23.71
2017-07-26T09:08:15.404Z,23.77
2017-07-26T09:09:15.350Z,23.8
2017-07-26T09:10:15.284Z,23.83
2017-07-26T09:11:14.892Z,23.84
2017-07-26T09:12:15.171Z,23.83
2017-07-26T09:13:15.153Z,23.78
2017-07-26T09:14:14.749Z,23.78
2017-07-26T09:15:14.985Z,23.8
2017-07-26T09:16:14.922Z,23.83
2017-07-26T09:17:14.896Z,23.83
2017-07-26T09:18:14.870Z,23.78
2017-07-26T09:19:14.731Z,23.78
2017-07-26T09:20:14.818Z,23.83
2017-07-26T09:21:14.609Z,23.81
2017-07-26T09:22:14.548Z,23.84
2017-07-26T09:23:14.484Z,23.81
2017-07-26T09:24:14.093Z,23.78
2017-07-26T09:25:14.565Z,23.81
2017-07-26T09:26:14.305Z,23.81
2017-07-26T09:27:14.247Z,23.86
2017-07-26T09:28:13.851Z,23.86
2017-07-26T09:29:14.119Z,23.78
2017-07-26T09:30:13.702Z,23.8
2017-07-26T09:31:14.008Z,23.78
2017-07-26T09:32:13.932Z,23.77
2017-07-26T09:33:13.877Z,23.74
2017-07-26T09:34:13.819Z,23.71
2017-07-26T09:35:14.094Z,23.76
2017-07-26T09:36:13.692Z,23.74
2017-07-26T09:37:13.296Z,23.71
2017-07-26T09:38:13.679Z,23.69
2017-07-26T09:39:13.516Z,23.74
2017-07-26T09:40:13.449Z,23.69
2017-07-26T09:41:13.395Z,23.73
2017-07-26T09:42:13.387Z,23.65
2017-07-26T09:43:13.266Z,23.73
2017-07-26T09:44:12.876Z,23.74
2017-07-26T09:45:13.143Z,23.66
2017-07-26T09:46:12.743Z,23.69
2017-07-26T09:47:13.013Z,23.69
2017-07-26T09:48:12.951Z,23.74
2017-07-26T09:49:12.560Z,23.63
2017-07-26T09:50:12.500Z,23.71
2017-07-26T09:51:12.785Z,23.61
2017-07-26T09:52:12.373Z,23.65
2017-07-26T09:53:12.644Z,23.63
2017-07-26T09:54:12.581Z,23.63
2017-07-26T09:55:12.523Z,23.68
2017-07-26T09:56:12.463Z,23.66
2017-07-26T09:57:12.406Z,23.63
2017-07-26T09:58:12.338Z,23.61
2017-07-26T09:59:12.279Z,23.59
2017-07-26T10:00:12.249Z,23.59
2017-07-26T10:01:12.162Z,23.59
2017-07-26T10:02:12.103Z,23.58
2017-07-26T10:03:12.036Z,23.68
2017-07-26T10:04:11.641Z,23.66
2017-07-26T10:05:11.583Z,23.59
2017-07-26T10:06:11.844Z,23.66
2017-07-26T10:07:11.789Z,23.56
2017-07-26T10:08:11.391Z,23.58
2017-07-26T10:09:11.659Z,23.58
2017-07-26T10:10:11.599Z,23.56
2017-07-26T10:11:11.539Z,23.61
2017-07-26T10:12:11.475Z,23.59
2017-07-26T10:13:11.416Z,23.55
2017-07-26T10:14:10.692Z,23.5
2017-07-26T10:15:11.290Z,23.61
2017-07-26T10:16:11.239Z,23.51
2017-07-26T10:17:11.181Z,23.61
2017-07-26T10:18:10.794Z,23.63
2017-07-26T10:19:11.050Z,23.56
2017-07-26T10:20:10.657Z,23.55
2017-07-26T10:21:10.593Z,23.51
2017-07-26T10:22:10.531Z,23.5
2017-07-26T10:23:10.805Z,23.59
2017-07-26T10:24:10.739Z,23.61
2017-07-26T10:25:10.018Z,23.58
2017-07-26T10:26:10.626Z,23.47
2017-07-26T10:27:10.553Z,23.48
2017-07-26T10:28:10.497Z,23.47
2017-07-26T10:29:10.430Z,23.62
2017-07-26T10:30:10.054Z,23.54
2017-07-26T10:31:10.311Z,23.61
2017-07-26T10:32:10.259Z,23.55
2017-07-26T10:33:10.186Z,23.51
2017-07-26T10:34:10.128Z,23.55
2017-07-26T10:35:10.062Z,23.55
2017-07-26T10:36:09.675Z,23.54
2017-07-26T10:37:09.612Z,23.55
2017-07-26T10:38:09.565Z,23.5
2017-07-26T10:39:10.064Z,23.51
2017-07-26T10:40:09.757Z,23.48
2017-07-26T10:41:09.699Z,23.54
2017-07-26T10:42:09.643Z,23.5
2017-07-26T10:43:09.243Z,23.51
2017-07-26T10:44:09.527Z,23.51
2017-07-26T10:45:09.129Z,23.48
2017-07-26T10:46:09.387Z,23.58
2017-07-26T10:47:08.997Z,23.48
2017-07-26T10:48:09.274Z,23.56
2017-07-26T10:49:09.205Z,23.5
2017-07-26T10:50:08.818Z,23.55
2017-07-26T10:51:08.764Z,23.54
2017-07-26T10:52:09.026Z,23.54
2017-07-26T10:53:08.968Z,23.46
2017-07-26T10:54:08.901Z,23.54
2017-07-26T10:55:09.134Z,23.54
2017-07-26T10:56:08.440Z,23.54
2017-07-26T10:57:08.709Z,23.54
2017-07-26T10:58:08.647Z,23.55
2017-07-26T10:59:08.586Z,23.58
2017-07-26T11:00:08.530Z,23.5
2017-07-26T11:01:08.140Z,23.48
2017-07-26T11:02:08.408Z,23.61
2017-07-26T11:03:08.349Z,23.55
2017-07-26T11:04:07.955Z,23.37
2017-07-26T11:05:08.222Z,23.34
2017-07-26T11:06:08.166Z,23.28
2017-07-26T11:07:08.112Z,23.23
2017-07-26T11:08:08.035Z,23.25
2017-07-26T11:09:07.646Z,23.2
2017-07-26T11:10:07.929Z,23.21
2017-07-26T11:11:07.850Z,23.23
2017-07-26T11:12:07.797Z,23.24
2017-07-26T11:13:07.407Z,23.18
2017-07-26T11:14:07.339Z,23.18
2017-07-26T11:15:07.615Z,23.2
2017-07-26T11:16:07.224Z,23.25
2017-07-26T11:17:07.486Z,23.18
2017-07-26T11:18:07.423Z,23.23
2017-07-26T11:19:07.048Z,23.18
2017-07-26T11:20:07.375Z,23.25
2017-07-26T11:21:07.242Z,23.2
2017-07-26T11:22:07.214Z,23.23
2017-07-26T11:23:07.117Z,23.21
2017-07-26T11:24:07.058Z,23.15
2017-07-26T11:25:06.996Z,23.21
2017-07-26T11:26:06.937Z,23.2
2017-07-26T11:27:06.881Z,23.23
2017-07-26T11:28:06.821Z,23.13
2017-07-26T11:29:06.751Z,23.12
2017-07-26T11:30:06.698Z,23.15
2017-07-26T11:31:06.295Z,23.12
2017-07-26T11:32:06.561Z,23.18
2017-07-26T11:33:06.505Z,23.09
2017-07-26T11:34:06.442Z,23.23
2017-07-26T11:35:06.379Z,23.13
2017-07-26T11:36:06.362Z,23.21
2017-07-26T11:37:06.252Z,23.2
2017-07-26T11:38:05.863Z,23.15
2017-07-26T11:39:06.140Z,23.2
2017-07-26T11:40:05.740Z,23.15
2017-07-26T11:41:05.681Z,23.18
2017-07-26T11:42:05.617Z,23.2
2017-07-26T11:43:05.889Z,23.17
2017-07-26T11:44:05.822Z,23.13
2017-07-26T11:45:05.764Z,23.12
2017-07-26T11:46:05.701Z,23.18
2017-07-26T11:47:05.637Z,23.1
2017-07-26T11:48:05.575Z,23.18
2017-07-26T11:49:05.520Z,23.12
2017-07-26T11:50:05.125Z,23.13
2017-07-26T11:51:05.401Z,23.13
2017-07-26T11:52:05.330Z,23.23
2017-07-26T11:53:05.281Z,23.17
2017-07-26T11:54:05.208Z,23.18
2017-07-26T11:55:05.146Z,23.12
2017-07-26T11:56:04.754Z,23.17
2017-07-26T11:57:05.023Z,23.12
2017-07-26T11:58:04.973Z,23.1
2017-07-26T11:59:04.907Z,23.13
2017-07-26T12:00:04.842Z,23.13
2017-07-26T12:01:04.778Z,23.24
2017-07-26T12:02:04.716Z,23.2
2017-07-26T12:03:04.656Z,23.2
2017-07-26T12:04:04.590Z,23.25
2017-07-26T12:05:04.537Z,23.23
2017-07-26T12:06:04.473Z,23.15
2017-07-26T12:07:04.408Z,23.21
2017-07-26T12:08:04.030Z,23.18
2017-07-26T12:09:03.953Z,23.21
2017-07-26T12:10:04.222Z,23.23
2017-07-26T12:11:03.830Z,23.21
2017-07-26T12:12:04.100Z,23.28
2017-07-26T12:13:04.047Z,23.21
2017-07-26T12:14:03.338Z,23.27
2017-07-26T12:15:03.914Z,23.28
2017-07-26T12:16:03.850Z,23.32
2017-07-26T12:17:03.462Z,23.27
2017-07-26T12:18:03.730Z,23.31
2017-07-26T12:19:03.670Z,23.34
2017-07-26T12:20:03.606Z,23.34
2017-07-26T12:21:03.544Z,23.28
2017-07-26T12:22:03.482Z,23.32
2017-07-26T12:23:03.116Z,23.43
2017-07-26T12:24:03.365Z,23.32
2017-07-26T12:25:03.300Z,23.27
2017-07-26T12:26:03.242Z,23.34
2017-07-26T12:27:03.173Z,23.31
2017-07-26T12:28:03.120Z,23.37
2017-07-26T12:29:03.053Z,23.27
2017-07-26T12:30:02.988Z,23.36
2017-07-26T12:31:02.930Z,23.46
2017-07-26T12:32:02.872Z,23.5
2017-07-26T12:33:02.806Z,23.47
2017-07-26T12:34:02.419Z,23.41
2017-07-26T12:35:02.683Z,23.47
2017-07-26T12:36:02.294Z,23.41
2017-07-26T12:37:02.560Z,23.44
2017-07-26T12:38:02.500Z,23.46
2017-07-26T12:39:02.440Z,23.46
2017-07-26T12:40:02.380Z,23.47
2017-07-26T12:41:02.322Z,23.44
2017-07-26T12:42:02.260Z,23.46
2017-07-26T12:43:01.536Z,23.5
2017-07-26T12:44:02.143Z,23.5
2017-07-26T12:45:02.075Z,23.46
2017-07-26T12:46:02.015Z,23.54
2017-07-26T12:47:01.958Z,23.56
2017-07-26T12:48:01.891Z,23.46
2017-07-26T12:49:01.511Z,23.55
2017-07-26T12:50:01.450Z,23.58
2017-07-26T12:51:01.714Z,23.54
2017-07-26T12:52:01.317Z,23.59
2017-07-26T12:53:01.591Z,23.48
2017-07-26T12:54:01.535Z,23.5
2017-07-26T12:55:01.467Z,23.47
2017-07-26T12:56:01.402Z,23.55